sensor_id;sensor_type;location;lat;lon;timestamp;P1;durP1;ratioP1;P2;durP2;ratioP2
17812;SDS011;9030;50.792;8.320;2024-01-10T02:54:47;26.47;;;15.03;;
17812;SDS011;9030;50.792;8.320;2024-01-10T02:57:15;28.87;;;15.80;;
17812;SDS011;9030;50.792;8.320;2024-01-10T02:59:43;26.30;;;14.33;;
17812;SDS011;9030;50.792;8.320;2024-01-10T03:02:12;26.73;;;14.57;;
17812;SDS011;9030;50.792;8.320;2024-01-10T03:04:41;24.93;;;13.13;;
17812;SDS011;9030;50.792;8.320;2024-01-10T03:07:11;30.60;;;14.80;;
17812;SDS011;9030;50.792;8.320;2024-01-10T03:09:40;23.77;;;14.00;;
17812;SDS011;9030;50.792;8.320;2024-01-10T03:12:10;28.90;;;16.30;;
17812;SDS011;9030;50.792;8.320;2024-01-10T03:14:38;27.60;;;13.93;;
17812;SDS011;9030;50.792;8.320;2024-01-10T03:17:06;21.67;;;11.97;;
17812;SDS011;9030;50.792;8.320;2024-01-10T03:19:35;32.73;;;13.83;;
17812;SDS011;9030;50.792;8.320;2024-01-10T03:22:12;26.17;;;14.97;;
17812;SDS011;9030;50.792;8.320;2024-01-10T03:24:41;24.53;;;13.13;;
17812;SDS011;9030;50.792;8.320;2024-01-10T03:27:11;24.57;;;13.70;;
17812;SDS011;9030;50.792;8.320;2024-01-10T03:29:39;26.37;;;14.67;;
17812;SDS011;9030;50.792;8.320;2024-01-10T03:32:11;28.70;;;15.77;;
17812;SDS011;9030;50.792;8.320;2024-01-10T03:34:39;31.23;;;16.03;;
17812;SDS011;9030;50.792;8.320;2024-01-10T03:37:09;24.83;;;13.63;;
17812;SDS011;9030;50.792;8.320;2024-01-10T03:39:37;21.17;;;8.53;;
17812;SDS011;9030;50.792;8.320;2024-01-10T03:42:05;24.87;;;13.00;;
17812;SDS011;9030;50.792;8.320;2024-01-10T03:44:37;26.63;;;14.33;;
17812;SDS011;9030;50.792;8.320;2024-01-10T03:47:05;22.50;;;13.03;;
17812;SDS011;9030;50.792;8.320;2024-01-10T03:49:33;30.77;;;14.97;;
17812;SDS011;9030;50.792;8.320;2024-01-10T03:54:47;26.33;;;15.57;;
17812;SDS011;9030;50.792;8.320;2024-01-10T03:57:15;34.67;;;15.40;;
17812;SDS011;9030;50.792;8.320;2024-01-10T03:59:47;27.80;;;16.70;;
17812;SDS011;9030;50.792;8.320;2024-01-10T04:02:14;26.10;;;16.20;;
17812;SDS011;9030;50.792;8.320;2024-01-10T04:04:47;32.53;;;18.00;;
17812;SDS011;9030;50.792;8.320;2024-01-10T04:07:16;28.40;;;17.30;;
17812;SDS011;9030;50.792;8.320;2024-01-10T04:09:49;28.33;;;16.17;;
17812;SDS011;9030;50.792;8.320;2024-01-10T04:12:18;28.13;;;17.63;;
17812;SDS011;9030;50.792;8.320;2024-01-10T04:14:48;22.27;;;13.50;;
17812;SDS011;9030;50.792;8.320;2024-01-10T04:17:21;24.63;;;9.63;;
17812;SDS011;9030;50.792;8.320;2024-01-10T04:19:55;28.57;;;17.30;;
17812;SDS011;9030;50.792;8.320;2024-01-10T04:22:23;22.07;;;10.97;;
17812;SDS011;9030;50.792;8.320;2024-01-10T04:25:07;29.17;;;17.83;;
17812;SDS011;9030;50.792;8.320;2024-01-10T04:27:41;24.37;;;11.97;;
17812;SDS011;9030;50.792;8.320;2024-01-10T04:30:13;30.00;;;18.93;;
17812;SDS011;9030;50.792;8.320;2024-01-10T04:32:42;26.47;;;17.33;;
17812;SDS011;9030;50.792;8.320;2024-01-10T04:35:11;28.90;;;18.63;;
17812;SDS011;9030;50.792;8.320;2024-01-10T04:37:39;33.13;;;19.60;;
17812;SDS011;9030;50.792;8.320;2024-01-10T04:40:10;32.97;;;18.30;;
17812;SDS011;9030;50.792;8.320;2024-01-10T04:42:38;16.20;;;9.17;;
17812;SDS011;9030;50.792;8.320;2024-01-10T04:45:07;24.77;;;13.53;;
17812;SDS011;9030;50.792;8.320;2024-01-10T04:47:38;31.47;;;16.30;;
17812;SDS011;9030;50.792;8.320;2024-01-10T04:50:07;29.67;;;17.17;;
17812;SDS011;9030;50.792;8.320;2024-01-10T04:52:36;29.83;;;17.70;;
17812;SDS011;9030;50.792;8.320;2024-01-10T04:55:04;26.27;;;14.33;;
17812;SDS011;9030;50.792;8.320;2024-01-10T04:57:33;34.07;;;18.27;;
17812;SDS011;9030;50.792;8.320;2024-01-10T05:00:01;34.80;;;18.37;;
17812;SDS011;9030;50.792;8.320;2024-01-10T05:02:33;35.37;;;18.17;;
17812;SDS011;9030;50.792;8.320;2024-01-10T05:05:05;37.03;;;19.47;;
17812;SDS011;9030;50.792;8.320;2024-01-10T05:07:36;23.13;;;14.43;;
17812;SDS011;9030;50.792;8.320;2024-01-10T05:10:05;31.20;;;17.53;;
17812;SDS011;9030;50.792;8.320;2024-01-10T05:12:33;27.47;;;19.93;;
17812;SDS011;9030;50.792;8.320;2024-01-10T05:15:05;33.80;;;18.73;;
17812;SDS011;9030;50.792;8.320;2024-01-10T05:17:33;33.57;;;20.03;;
17812;SDS011;9030;50.792;8.320;2024-01-10T05:20:04;34.97;;;17.77;;
17812;SDS011;9030;50.792;8.320;2024-01-10T05:22:34;27.70;;;15.97;;
17812;SDS011;9030;50.792;8.320;2024-01-10T05:25:03;31.47;;;18.70;;
17812;SDS011;9030;50.792;8.320;2024-01-10T05:27:32;29.97;;;19.40;;
17812;SDS011;9030;50.792;8.320;2024-01-10T05:30:00;31.83;;;19.40;;
17812;SDS011;9030;50.792;8.320;2024-01-10T05:32:29;31.93;;;18.03;;
17812;SDS011;9030;50.792;8.320;2024-01-10T05:34:58;26.73;;;14.87;;
17812;SDS011;9030;50.792;8.320;2024-01-10T05:37:27;31.07;;;19.37;;
17812;SDS011;9030;50.792;8.320;2024-01-10T05:39:54;31.57;;;18.23;;
17812;SDS011;9030;50.792;8.320;2024-01-10T05:42:21;30.47;;;14.67;;
17812;SDS011;9030;50.792;8.320;2024-01-10T05:44:47;32.70;;;20.63;;
17812;SDS011;9030;50.792;8.320;2024-01-10T05:47:14;34.20;;;19.13;;
17812;SDS011;9030;50.792;8.320;2024-01-10T05:49:40;33.80;;;18.40;;
17812;SDS011;9030;50.792;8.320;2024-01-10T05:52:08;39.37;;;21.37;;
17812;SDS011;9030;50.792;8.320;2024-01-10T05:54:36;33.97;;;18.43;;
17812;SDS011;9030;50.792;8.320;2024-01-10T05:57:03;35.13;;;21.63;;
17812;SDS011;9030;50.792;8.320;2024-01-10T05:59:30;35.93;;;20.97;;
17812;SDS011;9030;50.792;8.320;2024-01-10T06:01:56;25.83;;;15.83;;
17812;SDS011;9030;50.792;8.320;2024-01-10T06:04:23;30.20;;;19.10;;
17812;SDS011;9030;50.792;8.320;2024-01-10T06:06:50;34.43;;;20.50;;
17812;SDS011;9030;50.792;8.320;2024-01-10T06:09:17;34.93;;;19.67;;
17812;SDS011;9030;50.792;8.320;2024-01-10T06:11:48;30.70;;;21.67;;
17812;SDS011;9030;50.792;8.320;2024-01-10T06:14:15;30.60;;;20.83;;
17812;SDS011;9030;50.792;8.320;2024-01-10T06:16:41;36.40;;;20.77;;
17812;SDS011;9030;50.792;8.320;2024-01-10T06:19:09;31.23;;;16.43;;
17812;SDS011;9030;50.792;8.320;2024-01-10T06:21:36;31.63;;;19.40;;
17812;SDS011;9030;50.792;8.320;2024-01-10T06:24:03;32.60;;;20.83;;
17812;SDS011;9030;50.792;8.320;2024-01-10T06:26:30;33.23;;;20.43;;
17812;SDS011;9030;50.792;8.320;2024-01-10T06:28:58;39.10;;;24.57;;
17812;SDS011;9030;50.792;8.320;2024-01-10T06:31:25;37.17;;;21.53;;
17812;SDS011;9030;50.792;8.320;2024-01-10T06:33:52;38.67;;;19.93;;
17812;SDS011;9030;50.792;8.320;2024-01-10T06:36:18;33.77;;;20.37;;
17812;SDS011;9030;50.792;8.320;2024-01-10T06:38:45;41.50;;;24.83;;
17812;SDS011;9030;50.792;8.320;2024-01-10T06:41:12;30.83;;;17.73;;
17812;SDS011;9030;50.792;8.320;2024-01-10T06:43:39;37.10;;;22.87;;
17812;SDS011;9030;50.792;8.320;2024-01-10T06:46:07;38.07;;;22.93;;
17812;SDS011;9030;50.792;8.320;2024-01-10T06:48:35;33.17;;;21.87;;
17812;SDS011;9030;50.792;8.320;2024-01-10T06:51:02;32.90;;;16.13;;
17812;SDS011;9030;50.792;8.320;2024-01-10T06:53:28;31.67;;;21.43;;
17812;SDS011;9030;50.792;8.320;2024-01-10T06:55:55;39.30;;;23.60;;
17812;SDS011;9030;50.792;8.320;2024-01-10T06:58:22;45.07;;;24.80;;
17812;SDS011;9030;50.792;8.320;2024-01-10T07:00:49;52.50;;;28.40;;
17812;SDS011;9030;50.792;8.320;2024-01-10T07:03:18;41.43;;;24.53;;
17812;SDS011;9030;50.792;8.320;2024-01-10T07:05:44;39.47;;;21.73;;
17812;SDS011;9030;50.792;8.320;2024-01-10T07:08:11;33.77;;;22.83;;
17812;SDS011;9030;50.792;8.320;2024-01-10T07:10:38;41.93;;;24.00;;
17812;SDS011;9030;50.792;8.320;2024-01-10T07:13:04;37.60;;;22.10;;
17812;SDS011;9030;50.792;8.320;2024-01-10T07:15:31;37.67;;;22.93;;
17812;SDS011;9030;50.792;8.320;2024-01-10T07:17:58;35.77;;;21.33;;
17812;SDS011;9030;50.792;8.320;2024-01-10T07:20:27;38.87;;;21.07;;
17812;SDS011;9030;50.792;8.320;2024-01-10T07:22:53;23.60;;;11.73;;
17812;SDS011;9030;50.792;8.320;2024-01-10T07:25:22;40.40;;;22.00;;
17812;SDS011;9030;50.792;8.320;2024-01-10T07:27:50;41.23;;;23.80;;
17812;SDS011;9030;50.792;8.320;2024-01-10T07:30:17;44.33;;;23.40;;
17812;SDS011;9030;50.792;8.320;2024-01-10T07:32:44;36.00;;;24.03;;
17812;SDS011;9030;50.792;8.320;2024-01-10T07:35:12;34.57;;;19.00;;
17812;SDS011;9030;50.792;8.320;2024-01-10T07:37:41;37.93;;;20.33;;
17812;SDS011;9030;50.792;8.320;2024-01-10T07:40:08;36.13;;;22.00;;
17812;SDS011;9030;50.792;8.320;2024-01-10T07:42:36;38.93;;;22.30;;
17812;SDS011;9030;50.792;8.320;2024-01-10T07:45:05;33.53;;;19.63;;
17812;SDS011;9030;50.792;8.320;2024-01-10T07:47:33;42.00;;;24.03;;
17812;SDS011;9030;50.792;8.320;2024-01-10T07:50:02;45.90;;;25.43;;
17812;SDS011;9030;50.792;8.320;2024-01-10T07:52:30;40.43;;;23.37;;
17812;SDS011;9030;50.792;8.320;2024-01-10T07:54:58;44.23;;;25.50;;
17812;SDS011;9030;50.792;8.320;2024-01-10T07:57:25;44.23;;;24.80;;
17812;SDS011;9030;50.792;8.320;2024-01-10T07:59:52;42.03;;;24.83;;
17812;SDS011;9030;50.792;8.320;2024-01-10T08:02:19;39.50;;;25.53;;
17812;SDS011;9030;50.792;8.320;2024-01-10T08:04:45;41.57;;;24.03;;
17812;SDS011;9030;50.792;8.320;2024-01-10T08:07:13;37.40;;;24.87;;
17812;SDS011;9030;50.792;8.320;2024-01-10T08:09:39;39.27;;;21.83;;
17812;SDS011;9030;50.792;8.320;2024-01-10T08:12:07;40.63;;;26.20;;
17812;SDS011;9030;50.792;8.320;2024-01-10T08:14:34;44.07;;;27.40;;
17812;SDS011;9030;50.792;8.320;2024-01-10T08:17:02;38.50;;;24.70;;
17812;SDS011;9030;50.792;8.320;2024-01-10T08:19:29;40.97;;;28.33;;
17812;SDS011;9030;50.792;8.320;2024-01-10T08:21:56;44.13;;;27.97;;
17812;SDS011;9030;50.792;8.320;2024-01-10T08:24:23;45.47;;;26.63;;
17812;SDS011;9030;50.792;8.320;2024-01-10T08:26:49;38.60;;;21.40;;
17812;SDS011;9030;50.792;8.320;2024-01-10T08:29:18;30.70;;;19.77;;
17812;SDS011;9030;50.792;8.320;2024-01-10T08:31:45;49.10;;;28.87;;
17812;SDS011;9030;50.792;8.320;2024-01-10T08:34:12;41.20;;;24.90;;
17812;SDS011;9030;50.792;8.320;2024-01-10T08:36:39;45.67;;;25.30;;
17812;SDS011;9030;50.792;8.320;2024-01-10T08:39:05;43.80;;;25.67;;
17812;SDS011;9030;50.792;8.320;2024-01-10T08:41:32;38.27;;;22.33;;
17812;SDS011;9030;50.792;8.320;2024-01-10T08:44:01;34.97;;;22.37;;
17812;SDS011;9030;50.792;8.320;2024-01-10T08:46:30;41.43;;;25.47;;
17812;SDS011;9030;50.792;8.320;2024-01-10T08:48:56;35.03;;;20.60;;
17812;SDS011;9030;50.792;8.320;2024-01-10T08:51:23;41.40;;;24.77;;
17812;SDS011;9030;50.792;8.320;2024-01-10T08:53:49;32.23;;;18.87;;
17812;SDS011;9030;50.792;8.320;2024-01-10T08:56:18;39.90;;;23.00;;
17812;SDS011;9030;50.792;8.320;2024-01-10T08:58:45;37.83;;;22.27;;
17812;SDS011;9030;50.792;8.320;2024-01-10T09:01:12;44.97;;;26.87;;
17812;SDS011;9030;50.792;8.320;2024-01-10T09:03:39;40.63;;;21.53;;
17812;SDS011;9030;50.792;8.320;2024-01-10T09:06:06;39.83;;;26.50;;
17812;SDS011;9030;50.792;8.320;2024-01-10T09:08:33;42.33;;;25.07;;
17812;SDS011;9030;50.792;8.320;2024-01-10T09:11:00;37.07;;;21.30;;
17812;SDS011;9030;50.792;8.320;2024-01-10T09:13:27;32.30;;;22.67;;
17812;SDS011;9030;50.792;8.320;2024-01-10T09:15:53;39.90;;;25.67;;
17812;SDS011;9030;50.792;8.320;2024-01-10T09:18:20;43.20;;;27.37;;
17812;SDS011;9030;50.792;8.320;2024-01-10T09:20:48;37.03;;;24.93;;
17812;SDS011;9030;50.792;8.320;2024-01-10T09:23:14;41.60;;;25.47;;
17812;SDS011;9030;50.792;8.320;2024-01-10T09:25:41;39.93;;;24.87;;
17812;SDS011;9030;50.792;8.320;2024-01-10T09:28:08;37.33;;;24.67;;
17812;SDS011;9030;50.792;8.320;2024-01-10T09:30:35;42.77;;;26.30;;
17812;SDS011;9030;50.792;8.320;2024-01-10T09:33:02;42.97;;;28.10;;
17812;SDS011;9030;50.792;8.320;2024-01-10T09:35:29;40.50;;;23.10;;
17812;SDS011;9030;50.792;8.320;2024-01-10T09:37:57;43.17;;;25.27;;
17812;SDS011;9030;50.792;8.320;2024-01-10T09:40:23;36.23;;;24.30;;
17812;SDS011;9030;50.792;8.320;2024-01-10T09:42:53;40.40;;;24.83;;
17812;SDS011;9030;50.792;8.320;2024-01-10T09:45:21;42.77;;;25.33;;
17812;SDS011;9030;50.792;8.320;2024-01-10T09:47:51;39.10;;;24.30;;
17812;SDS011;9030;50.792;8.320;2024-01-10T09:50:20;38.27;;;24.60;;
17812;SDS011;9030;50.792;8.320;2024-01-10T09:52:48;41.30;;;25.70;;
17812;SDS011;9030;50.792;8.320;2024-01-10T09:55:20;36.97;;;24.33;;
17812;SDS011;9030;50.792;8.320;2024-01-10T09:57:47;38.07;;;23.87;;
17812;SDS011;9030;50.792;8.320;2024-01-10T10:00:15;42.03;;;26.30;;
17812;SDS011;9030;50.792;8.320;2024-01-10T10:02:43;39.77;;;24.33;;
17812;SDS011;9030;50.792;8.320;2024-01-10T10:05:13;43.33;;;26.20;;
17812;SDS011;9030;50.792;8.320;2024-01-10T10:07:44;39.70;;;26.37;;
17812;SDS011;9030;50.792;8.320;2024-01-10T10:10:11;41.63;;;28.27;;
17812;SDS011;9030;50.792;8.320;2024-01-10T10:12:44;59.10;;;33.03;;
17812;SDS011;9030;50.792;8.320;2024-01-10T10:15:13;41.13;;;26.10;;
17812;SDS011;9030;50.792;8.320;2024-01-10T10:17:41;42.17;;;27.13;;
17812;SDS011;9030;50.792;8.320;2024-01-10T10:20:12;43.77;;;23.70;;
17812;SDS011;9030;50.792;8.320;2024-01-10T10:22:40;38.10;;;23.97;;
17812;SDS011;9030;50.792;8.320;2024-01-10T10:25:25;23.83;;;15.40;;
17812;SDS011;9030;50.792;8.320;2024-01-10T10:27:54;38.50;;;24.03;;
17812;SDS011;9030;50.792;8.320;2024-01-10T10:30:20;42.33;;;27.23;;
17812;SDS011;9030;50.792;8.320;2024-01-10T10:32:47;41.30;;;25.97;;
17812;SDS011;9030;50.792;8.320;2024-01-10T10:35:14;40.50;;;24.37;;
17812;SDS011;9030;50.792;8.320;2024-01-10T10:37:40;53.70;;;32.93;;
17812;SDS011;9030;50.792;8.320;2024-01-10T10:40:07;38.03;;;25.07;;
17812;SDS011;9030;50.792;8.320;2024-01-10T10:42:35;46.23;;;28.57;;
17812;SDS011;9030;50.792;8.320;2024-01-10T10:45:11;40.77;;;24.63;;
17812;SDS011;9030;50.792;8.320;2024-01-10T10:47:42;44.30;;;27.67;;
17812;SDS011;9030;50.792;8.320;2024-01-10T10:50:12;53.23;;;31.40;;
17812;SDS011;9030;50.792;8.320;2024-01-10T10:52:39;44.40;;;25.40;;
17812;SDS011;9030;50.792;8.320;2024-01-10T10:55:11;49.67;;;30.83;;
17812;SDS011;9030;50.792;8.320;2024-01-10T10:57:41;49.77;;;29.07;;
17812;SDS011;9030;50.792;8.320;2024-01-10T11:00:10;48.70;;;26.63;;
17812;SDS011;9030;50.792;8.320;2024-01-10T11:02:40;56.63;;;33.07;;
17812;SDS011;9030;50.792;8.320;2024-01-10T11:05:07;54.73;;;28.40;;
17812;SDS011;9030;50.792;8.320;2024-01-10T11:07:34;56.97;;;38.47;;
17812;SDS011;9030;50.792;8.320;2024-01-10T11:10:02;40.30;;;27.93;;
17812;SDS011;9030;50.792;8.320;2024-01-10T11:12:34;38.53;;;25.07;;
17812;SDS011;9030;50.792;8.320;2024-01-10T11:15:18;39.57;;;26.33;;
17812;SDS011;9030;50.792;8.320;2024-01-10T11:18:02;38.77;;;22.70;;
17812;SDS011;9030;50.792;8.320;2024-01-10T11:20:44;40.60;;;25.33;;
17812;SDS011;9030;50.792;8.320;2024-01-10T11:23:30;41.97;;;25.60;;
17812;SDS011;9030;50.792;8.320;2024-01-10T11:26:04;31.73;;;19.70;;
17812;SDS011;9030;50.792;8.320;2024-01-10T11:28:31;38.30;;;25.50;;
17812;SDS011;9030;50.792;8.320;2024-01-10T11:30:59;38.90;;;25.83;;
17812;SDS011;9030;50.792;8.320;2024-01-10T11:33:30;41.90;;;27.70;;
17812;SDS011;9030;50.792;8.320;2024-01-10T11:36:07;38.47;;;25.20;;
17812;SDS011;9030;50.792;8.320;2024-01-10T11:38:38;36.67;;;25.53;;
17812;SDS011;9030;50.792;8.320;2024-01-10T11:41:12;36.87;;;22.87;;
17812;SDS011;9030;50.792;8.320;2024-01-10T11:43:41;36.43;;;25.37;;
17812;SDS011;9030;50.792;8.320;2024-01-10T11:46:09;34.87;;;25.20;;
17812;SDS011;9030;50.792;8.320;2024-01-10T11:48:37;39.87;;;26.67;;
17812;SDS011;9030;50.792;8.320;2024-01-10T11:51:05;38.93;;;25.90;;
17812;SDS011;9030;50.792;8.320;2024-01-10T11:53:43;38.47;;;28.73;;
17812;SDS011;9030;50.792;8.320;2024-01-10T11:56:12;37.57;;;25.17;;
17812;SDS011;9030;50.792;8.320;2024-01-10T11:58:54;32.13;;;21.87;;
17812;SDS011;9030;50.792;8.320;2024-01-10T12:01:23;38.40;;;25.77;;
17812;SDS011;9030;50.792;8.320;2024-01-10T12:03:53;41.00;;;27.07;;
17812;SDS011;9030;50.792;8.320;2024-01-10T12:06:21;42.53;;;25.37;;
17812;SDS011;9030;50.792;8.320;2024-01-10T12:08:48;35.07;;;25.10;;
17812;SDS011;9030;50.792;8.320;2024-01-10T12:11:15;42.90;;;35.10;;
17812;SDS011;9030;50.792;8.320;2024-01-10T12:13:42;64.17;;;53.60;;
17812;SDS011;9030;50.792;8.320;2024-01-10T12:16:10;40.07;;;27.27;;
17812;SDS011;9030;50.792;8.320;2024-01-10T12:18:39;38.20;;;24.87;;
17812;SDS011;9030;50.792;8.320;2024-01-10T12:21:06;37.23;;;24.97;;
17812;SDS011;9030;50.792;8.320;2024-01-10T12:23:33;33.50;;;20.67;;
17812;SDS011;9030;50.792;8.320;2024-01-10T12:26:01;31.73;;;23.13;;
17812;SDS011;9030;50.792;8.320;2024-01-10T12:28:28;42.87;;;27.67;;
17812;SDS011;9030;50.792;8.320;2024-01-10T12:30:54;39.77;;;26.83;;
17812;SDS011;9030;50.792;8.320;2024-01-10T12:33:21;32.17;;;20.00;;
17812;SDS011;9030;50.792;8.320;2024-01-10T12:36:02;34.77;;;22.87;;
17812;SDS011;9030;50.792;8.320;2024-01-10T12:38:33;42.17;;;25.60;;
17812;SDS011;9030;50.792;8.320;2024-01-10T12:41:00;34.67;;;22.77;;
17812;SDS011;9030;50.792;8.320;2024-01-10T12:43:27;43.77;;;27.03;;
17812;SDS011;9030;50.792;8.320;2024-01-10T12:46:04;36.37;;;25.67;;
17812;SDS011;9030;50.792;8.320;2024-01-10T12:48:31;36.43;;;24.83;;
17812;SDS011;9030;50.792;8.320;2024-01-10T12:51:02;32.83;;;25.00;;
17812;SDS011;9030;50.792;8.320;2024-01-10T12:53:32;38.33;;;23.60;;
17812;SDS011;9030;50.792;8.320;2024-01-10T12:56:00;42.10;;;23.60;;
17812;SDS011;9030;50.792;8.320;2024-01-10T12:58:27;35.10;;;23.47;;
17812;SDS011;9030;50.792;8.320;2024-01-10T13:00:54;40.20;;;25.73;;
17812;SDS011;9030;50.792;8.320;2024-01-10T13:03:21;39.73;;;26.30;;
17812;SDS011;9030;50.792;8.320;2024-01-10T13:05:48;33.57;;;24.17;;
17812;SDS011;9030;50.792;8.320;2024-01-10T13:08:16;43.50;;;26.03;;
17812;SDS011;9030;50.792;8.320;2024-01-10T13:10:44;33.03;;;22.87;;
17812;SDS011;9030;50.792;8.320;2024-01-10T13:13:11;39.77;;;25.20;;
17812;SDS011;9030;50.792;8.320;2024-01-10T13:15:38;34.87;;;23.40;;
17812;SDS011;9030;50.792;8.320;2024-01-10T13:18:05;38.03;;;24.83;;
17812;SDS011;9030;50.792;8.320;2024-01-10T13:20:33;38.47;;;24.03;;
17812;SDS011;9030;50.792;8.320;2024-01-10T13:23:00;36.83;;;23.70;;
17812;SDS011;9030;50.792;8.320;2024-01-10T13:25:28;35.57;;;24.97;;
17812;SDS011;9030;50.792;8.320;2024-01-10T13:27:54;37.17;;;22.53;;
17812;SDS011;9030;50.792;8.320;2024-01-10T13:30:22;34.70;;;25.67;;
17812;SDS011;9030;50.792;8.320;2024-01-10T13:32:49;36.53;;;26.17;;
17812;SDS011;9030;50.792;8.320;2024-01-10T13:35:16;33.70;;;21.97;;
17812;SDS011;9030;50.792;8.320;2024-01-10T13:37:42;32.57;;;22.47;;
17812;SDS011;9030;50.792;8.320;2024-01-10T13:40:10;36.27;;;24.33;;
17812;SDS011;9030;50.792;8.320;2024-01-10T13:42:39;38.70;;;25.13;;
17812;SDS011;9030;50.792;8.320;2024-01-10T13:45:07;34.93;;;24.47;;
17812;SDS011;9030;50.792;8.320;2024-01-10T13:47:36;34.33;;;25.93;;
17812;SDS011;9030;50.792;8.320;2024-01-10T13:50:03;36.93;;;23.93;;
17812;SDS011;9030;50.792;8.320;2024-01-10T13:52:30;34.40;;;23.27;;
17812;SDS011;9030;50.792;8.320;2024-01-10T13:54:57;34.43;;;23.80;;
17812;SDS011;9030;50.792;8.320;2024-01-10T13:57:24;36.73;;;24.23;;
17812;SDS011;9030;50.792;8.320;2024-01-10T13:59:52;38.80;;;24.47;;
17812;SDS011;9030;50.792;8.320;2024-01-10T14:02:20;35.87;;;22.20;;
17812;SDS011;9030;50.792;8.320;2024-01-10T14:04:47;34.10;;;24.93;;
17812;SDS011;9030;50.792;8.320;2024-01-10T14:07:14;36.90;;;25.53;;
17812;SDS011;9030;50.792;8.320;2024-01-10T14:09:40;38.97;;;30.33;;
17812;SDS011;9030;50.792;8.320;2024-01-10T14:12:07;43.73;;;27.83;;
17812;SDS011;9030;50.792;8.320;2024-01-10T14:14:34;37.43;;;27.90;;
17812;SDS011;9030;50.792;8.320;2024-01-10T14:17:02;34.83;;;26.87;;
17812;SDS011;9030;50.792;8.320;2024-01-10T14:19:29;37.73;;;25.03;;
17812;SDS011;9030;50.792;8.320;2024-01-10T14:21:56;32.17;;;24.10;;
17812;SDS011;9030;50.792;8.320;2024-01-10T14:24:23;35.67;;;26.00;;
17812;SDS011;9030;50.792;8.320;2024-01-10T14:26:50;33.50;;;26.57;;
17812;SDS011;9030;50.792;8.320;2024-01-10T14:29:17;35.87;;;24.40;;
17812;SDS011;9030;50.792;8.320;2024-01-10T14:31:44;38.10;;;26.20;;
17812;SDS011;9030;50.792;8.320;2024-01-10T14:34:12;38.87;;;24.63;;
17812;SDS011;9030;50.792;8.320;2024-01-10T14:36:40;39.93;;;25.30;;
17812;SDS011;9030;50.792;8.320;2024-01-10T14:39:06;38.33;;;26.63;;
17812;SDS011;9030;50.792;8.320;2024-01-10T14:41:33;36.17;;;25.83;;
17812;SDS011;9030;50.792;8.320;2024-01-10T14:44:00;37.20;;;23.80;;
17812;SDS011;9030;50.792;8.320;2024-01-10T14:46:28;35.60;;;24.53;;
17812;SDS011;9030;50.792;8.320;2024-01-10T14:48:55;37.67;;;25.57;;
17812;SDS011;9030;50.792;8.320;2024-01-10T14:51:23;39.43;;;25.97;;
17812;SDS011;9030;50.792;8.320;2024-01-10T14:53:50;34.43;;;24.10;;
17812;SDS011;9030;50.792;8.320;2024-01-10T14:56:17;37.83;;;23.77;;
17812;SDS011;9030;50.792;8.320;2024-01-10T14:58:43;36.53;;;25.03;;
17812;SDS011;9030;50.792;8.320;2024-01-10T15:01:10;36.23;;;24.63;;
17812;SDS011;9030;50.792;8.320;2024-01-10T15:03:37;38.53;;;25.27;;
17812;SDS011;9030;50.792;8.320;2024-01-10T15:06:04;35.53;;;22.80;;
17812;SDS011;9030;50.792;8.320;2024-01-10T15:08:32;37.17;;;23.67;;
17812;SDS011;9030;50.792;8.320;2024-01-10T15:10:59;35.80;;;24.57;;
17812;SDS011;9030;50.792;8.320;2024-01-10T15:13:26;36.10;;;26.00;;
17812;SDS011;9030;50.792;8.320;2024-01-10T15:15:54;37.70;;;26.50;;
17812;SDS011;9030;50.792;8.320;2024-01-10T15:18:20;44.07;;;27.20;;
17812;SDS011;9030;50.792;8.320;2024-01-10T15:20:47;41.30;;;25.90;;
17812;SDS011;9030;50.792;8.320;2024-01-10T15:23:14;39.20;;;26.50;;
17812;SDS011;9030;50.792;8.320;2024-01-10T15:25:42;41.90;;;28.17;;
17812;SDS011;9030;50.792;8.320;2024-01-10T15:28:09;36.43;;;26.80;;
17812;SDS011;9030;50.792;8.320;2024-01-10T15:30:35;34.07;;;25.93;;
17812;SDS011;9030;50.792;8.320;2024-01-10T15:33:02;46.50;;;27.30;;
17812;SDS011;9030;50.792;8.320;2024-01-10T15:35:30;38.00;;;27.40;;
17812;SDS011;9030;50.792;8.320;2024-01-10T15:37:56;37.47;;;28.60;;
17812;SDS011;9030;50.792;8.320;2024-01-10T15:40:23;38.53;;;25.63;;
17812;SDS011;9030;50.792;8.320;2024-01-10T15:42:51;35.00;;;24.60;;
17812;SDS011;9030;50.792;8.320;2024-01-10T15:45:17;39.03;;;25.23;;
17812;SDS011;9030;50.792;8.320;2024-01-10T15:47:44;38.77;;;24.10;;
17812;SDS011;9030;50.792;8.320;2024-01-10T15:50:11;36.60;;;25.07;;
17812;SDS011;9030;50.792;8.320;2024-01-10T15:52:37;39.70;;;25.07;;
17812;SDS011;9030;50.792;8.320;2024-01-10T15:55:04;38.13;;;26.10;;
17812;SDS011;9030;50.792;8.320;2024-01-10T15:57:33;38.30;;;26.73;;
17812;SDS011;9030;50.792;8.320;2024-01-10T16:00:01;42.83;;;28.03;;
17812;SDS011;9030;50.792;8.320;2024-01-10T16:02:29;45.60;;;29.23;;
17812;SDS011;9030;50.792;8.320;2024-01-10T16:04:56;46.47;;;30.03;;
17812;SDS011;9030;50.792;8.320;2024-01-10T16:07:23;49.90;;;29.03;;
17812;SDS011;9030;50.792;8.320;2024-01-10T16:09:49;39.37;;;29.60;;
17812;SDS011;9030;50.792;8.320;2024-01-10T16:12:16;38.97;;;26.17;;
17812;SDS011;9030;50.792;8.320;2024-01-10T16:14:43;41.40;;;27.63;;
17812;SDS011;9030;50.792;8.320;2024-01-10T16:17:11;43.83;;;33.90;;
17812;SDS011;9030;50.792;8.320;2024-01-10T16:19:37;46.67;;;31.70;;
17812;SDS011;9030;50.792;8.320;2024-01-10T16:22:04;39.67;;;28.27;;
17812;SDS011;9030;50.792;8.320;2024-01-10T16:24:30;43.80;;;29.13;;
17812;SDS011;9030;50.792;8.320;2024-01-10T16:26:57;57.03;;;39.20;;
17812;SDS011;9030;50.792;8.320;2024-01-10T16:29:24;105.90;;;70.50;;
17812;SDS011;9030;50.792;8.320;2024-01-10T16:31:51;78.67;;;50.10;;
17812;SDS011;9030;50.792;8.320;2024-01-10T16:34:19;50.53;;;36.10;;
17812;SDS011;9030;50.792;8.320;2024-01-10T16:36:45;84.70;;;58.97;;
17812;SDS011;9030;50.792;8.320;2024-01-10T16:39:12;126.60;;;69.47;;
17812;SDS011;9030;50.792;8.320;2024-01-10T16:41:39;66.53;;;41.87;;
17812;SDS011;9030;50.792;8.320;2024-01-10T16:44:06;58.97;;;38.10;;
17812;SDS011;9030;50.792;8.320;2024-01-10T16:46:32;50.83;;;37.27;;
17812;SDS011;9030;50.792;8.320;2024-01-10T16:48:59;47.10;;;31.63;;
17812;SDS011;9030;50.792;8.320;2024-01-10T16:51:27;59.33;;;42.63;;
17812;SDS011;9030;50.792;8.320;2024-01-10T16:53:53;48.93;;;32.50;;
17812;SDS011;9030;50.792;8.320;2024-01-10T16:56:20;86.07;;;50.73;;
17812;SDS011;9030;50.792;8.320;2024-01-10T16:58:47;83.10;;;49.53;;
17812;SDS011;9030;50.792;8.320;2024-01-10T17:01:13;42.80;;;33.70;;
17812;SDS011;9030;50.792;8.320;2024-01-10T17:03:40;75.90;;;47.63;;
17812;SDS011;9030;50.792;8.320;2024-01-10T17:06:07;56.50;;;37.37;;
17812;SDS011;9030;50.792;8.320;2024-01-10T17:08:35;59.23;;;36.13;;
17812;SDS011;9030;50.792;8.320;2024-01-10T17:11:02;44.13;;;29.07;;
17812;SDS011;9030;50.792;8.320;2024-01-10T17:13:29;61.80;;;38.83;;
17812;SDS011;9030;50.792;8.320;2024-01-10T17:15:56;40.67;;;27.43;;
17812;SDS011;9030;50.792;8.320;2024-01-10T17:18:23;43.87;;;29.17;;
17812;SDS011;9030;50.792;8.320;2024-01-10T17:20:50;45.60;;;30.40;;
17812;SDS011;9030;50.792;8.320;2024-01-10T17:23:17;42.10;;;28.27;;
17812;SDS011;9030;50.792;8.320;2024-01-10T17:25:45;46.77;;;29.50;;
17812;SDS011;9030;50.792;8.320;2024-01-10T17:28:11;50.70;;;34.87;;
17812;SDS011;9030;50.792;8.320;2024-01-10T17:30:38;53.67;;;37.97;;
17812;SDS011;9030;50.792;8.320;2024-01-10T17:33:05;51.80;;;35.00;;
17812;SDS011;9030;50.792;8.320;2024-01-10T17:35:33;61.43;;;44.10;;